createdAt,value
2023-04-17T00:00:10.555Z,33.15
2023-04-17T00:02:41.187Z,29.98
2023-04-17T00:05:10.584Z,32.30
2023-04-17T00:07:39.871Z,32.08
2023-04-17T00:10:10.021Z,30.77
2023-04-17T00:12:38.967Z,30.80
2023-04-17T00:15:08.717Z,32.83
2023-04-17T00:17:37.125Z,31.73
2023-04-17T00:20:10.010Z,30.42
2023-04-17T00:22:38.217Z,31.38
2023-04-17T00:25:07.394Z,31.42
2023-04-17T00:27:35.534Z,31.23
2023-04-17T00:30:04.206Z,32.10
2023-04-17T00:32:32.380Z,34.17
2023-04-17T00:35:00.525Z,33.00
2023-04-17T00:37:30.118Z,33.53
2023-04-17T00:39:58.297Z,31.33
2023-04-17T00:42:27.021Z,32.30
2023-04-17T00:44:55.717Z,31.60
2023-04-17T00:47:26.261Z,31.67
2023-04-17T00:49:54.635Z,34.10
2023-04-17T00:52:30.844Z,33.15
2023-04-17T00:55:00.743Z,34.17
2023-04-17T00:57:29.027Z,33.72
2023-04-17T00:59:58.561Z,36.55
2023-04-17T01:02:27.369Z,33.78
2023-04-17T01:04:56.042Z,37.80
2023-04-17T01:07:25.438Z,35.63
2023-04-17T01:09:55.632Z,32.50
2023-04-17T01:12:25.672Z,33.85
2023-04-17T01:14:57.176Z,36.05
2023-04-17T01:17:27.594Z,35.60
2023-04-17T01:19:56.631Z,34.88
2023-04-17T01:22:24.883Z,34.85
2023-04-17T01:24:59.158Z,33.30
2023-04-17T01:27:32.133Z,34.53
2023-04-17T01:30:00.761Z,33.60
2023-04-17T01:32:29.592Z,35.17
2023-04-17T01:34:58.112Z,33.08
2023-04-17T01:37:26.355Z,34.03
2023-04-17T01:39:55.651Z,34.95
2023-04-17T01:42:26.217Z,38.28
2023-04-17T01:44:55.158Z,39.65
2023-04-17T01:47:23.309Z,36.75
2023-04-17T01:49:51.509Z,36.05
2023-04-17T01:52:19.670Z,36.80
2023-04-17T01:54:48.175Z,34.90
2023-04-17T01:57:16.428Z,36.75
2023-04-17T01:59:46.350Z,34.30
2023-04-17T02:02:15.704Z,35.38
2023-04-17T02:04:44.148Z,34.53
2023-04-17T02:07:12.535Z,35.45
2023-04-17T02:09:40.674Z,36.30
2023-04-17T02:12:09.105Z,35.95
2023-04-17T02:14:37.258Z,36.20
2023-04-17T02:17:07.180Z,35.05
2023-04-17T02:19:35.392Z,35.35
2023-04-17T02:22:04.334Z,33.40
2023-04-17T02:24:32.554Z,36.60
2023-04-17T02:27:01.934Z,32.88
2023-04-17T02:29:30.223Z,35.63
2023-04-17T02:31:58.607Z,32.80
2023-04-17T02:34:28.428Z,34.55
2023-04-17T02:36:57.390Z,33.00
2023-04-17T02:39:25.700Z,34.97
2023-04-17T02:41:53.825Z,33.58
2023-04-17T02:44:21.988Z,34.13
2023-04-17T02:46:50.262Z,34.17
2023-04-17T02:49:18.631Z,32.88
2023-04-17T02:51:48.161Z,33.45
2023-04-17T02:54:16.626Z,32.38
2023-04-17T02:56:44.975Z,32.33
2023-04-17T02:59:13.920Z,34.25
2023-04-17T03:01:42.929Z,34.72
2023-04-17T03:04:11.362Z,36.65
2023-04-17T03:06:39.789Z,37.03
2023-04-17T03:09:12.252Z,39.40
2023-04-17T03:11:40.752Z,35.33
2023-04-17T03:14:08.956Z,36.10
2023-04-17T03:16:37.209Z,36.97
2023-04-17T03:19:06.021Z,38.72
2023-04-17T03:21:34.216Z,37.75
2023-04-17T03:24:02.914Z,36.95
2023-04-17T03:26:33.393Z,36.35
2023-04-17T03:29:07.654Z,37.92
2023-04-17T03:31:35.936Z,38.33
2023-04-17T03:34:04.233Z,37.92
2023-04-17T03:36:32.632Z,37.25
2023-04-17T03:39:02.159Z,36.20
2023-04-17T03:41:30.996Z,39.83
2023-04-17T03:44:00.832Z,41.45
2023-04-17T03:46:30.780Z,42.50
2023-04-17T03:48:59.818Z,42.50
2023-04-17T03:51:28.902Z,42.97
2023-04-17T03:54:02.510Z,43.05
2023-04-17T03:56:32.177Z,42.05
2023-04-17T03:59:01.936Z,45.05
2023-04-17T04:01:30.390Z,42.55
2023-04-17T04:04:13.137Z,43.72
2023-04-17T04:06:42.761Z,43.38
2023-04-17T04:09:15.720Z,40.50
2023-04-17T04:11:44.389Z,40.55
2023-04-17T04:14:14.303Z,40.92
2023-04-17T04:16:42.620Z,40.22
2023-04-17T04:19:13.777Z,43.17
2023-04-17T04:21:45.114Z,42.58
2023-04-17T04:24:15.257Z,44.33
2023-04-17T04:26:47.359Z,40.03
2023-04-17T04:29:17.942Z,39.97
2023-04-17T04:32:01.109Z,40.70
2023-04-17T04:34:36.348Z,39.30
2023-04-17T04:37:04.507Z,41.58
2023-04-17T04:39:41.410Z,40.30
2023-04-17T04:42:11.967Z,40.05
2023-04-17T04:44:52.944Z,38.63
2023-04-17T04:47:22.963Z,38.72
2023-04-17T04:49:52.076Z,39.03
2023-04-17T04:52:22.465Z,36.08
2023-04-17T04:54:53.017Z,37.90
2023-04-17T04:57:21.235Z,35.40
2023-04-17T04:59:52.911Z,37.72
2023-04-17T05:02:35.891Z,36.25
2023-04-17T05:05:05.494Z,36.35
2023-04-17T05:07:36.022Z,35.05
2023-04-17T05:10:06.813Z,34.17
2023-04-17T05:12:38.253Z,32.58
2023-04-17T05:15:11.544Z,34.58
2023-04-17T05:17:39.875Z,33.42
2023-04-17T05:20:09.828Z,33.58
2023-04-17T05:22:46.687Z,33.50
2023-04-17T05:25:16.254Z,33.00
2023-04-17T05:27:44.488Z,31.20
2023-04-17T05:30:16.488Z,33.45
2023-04-17T05:32:48.600Z,33.92
2023-04-17T05:35:49.005Z,33.05
2023-04-17T05:38:17.328Z,32.35
2023-04-17T05:40:45.829Z,32.92
2023-04-17T05:43:14.984Z,34.13
2023-04-17T05:45:44.553Z,32.40
2023-04-17T05:48:13.164Z,33.47
2023-04-17T05:50:41.482Z,33.70
2023-04-17T05:53:10.392Z,33.47
2023-04-17T05:55:46.471Z,32.88
2023-04-17T06:00:47.849Z,32.00
2023-04-17T06:03:19.516Z,31.52
2023-04-17T06:05:52.026Z,32.53
2023-04-17T06:08:20.785Z,32.83
2023-04-17T06:10:50.725Z,33.13
2023-04-17T06:13:19.070Z,33.22
2023-04-17T06:15:52.742Z,30.42
2023-04-17T06:18:20.960Z,30.40
2023-04-17T06:20:49.152Z,31.92
2023-04-17T06:23:17.384Z,32.13
2023-04-17T06:25:45.687Z,31.15
2023-04-17T06:28:14.538Z,29.25
2023-04-17T06:30:42.731Z,29.25
2023-04-17T06:33:12.323Z,27.20
2023-04-17T06:35:41.081Z,29.60
2023-04-17T06:38:20.169Z,28.48
2023-04-17T06:40:49.173Z,28.95
2023-04-17T06:43:18.383Z,26.83
2023-04-17T06:45:47.020Z,27.05
2023-04-17T06:48:16.502Z,25.17
2023-04-17T06:50:45.050Z,24.98
2023-04-17T06:53:14.491Z,25.50
2023-04-17T06:55:43.214Z,25.95
2023-04-17T06:58:11.406Z,24.80
2023-04-17T07:00:39.582Z,25.67
2023-04-17T07:03:08.772Z,23.67
2023-04-17T07:05:38.547Z,23.95
2023-04-17T07:08:07.117Z,22.63
2023-04-17T07:10:35.322Z,23.00
2023-04-17T07:13:03.496Z,21.40
2023-04-17T07:15:31.689Z,20.45
2023-04-17T07:17:59.944Z,18.83
2023-04-17T07:20:28.238Z,18.48
2023-04-17T07:22:57.841Z,19.60
2023-04-17T07:25:26.489Z,18.27
2023-04-17T07:27:56.820Z,18.95
2023-04-17T07:30:25.311Z,18.63
2023-04-17T07:32:53.596Z,18.77
2023-04-17T07:35:22.200Z,16.98
2023-04-17T07:37:50.640Z,16.75
2023-04-17T07:40:20.158Z,15.35
2023-04-17T07:42:48.364Z,15.90
2023-04-17T07:45:16.592Z,15.23
2023-04-17T07:47:44.804Z,16.00
2023-04-17T07:50:13.202Z,15.45
2023-04-17T07:52:41.333Z,14.75
2023-04-17T07:55:10.961Z,14.00
2023-04-17T07:57:42.651Z,14.63
2023-04-17T08:00:13.669Z,14.82
2023-04-17T08:02:43.417Z,12.98
2023-04-17T08:05:12.222Z,12.68
2023-04-17T08:07:41.165Z,11.95
2023-04-17T08:10:10.061Z,11.95
2023-04-17T08:12:38.382Z,11.07
2023-04-17T08:15:09.722Z,11.93
2023-04-17T08:17:37.904Z,11.48
2023-04-17T08:20:12.014Z,11.32
2023-04-17T08:22:41.481Z,10.93
2023-04-17T08:25:11.264Z,11.13
2023-04-17T08:27:40.841Z,9.52
2023-04-17T08:30:14.309Z,10.38
2023-04-17T08:32:45.750Z,10.35
2023-04-17T08:35:15.735Z,10.75
2023-04-17T08:37:46.735Z,10.30
2023-04-17T08:40:17.481Z,9.25
2023-04-17T08:42:47.789Z,9.25
2023-04-17T08:45:18.291Z,9.82
2023-04-17T08:47:46.632Z,9.70
2023-04-17T08:50:17.375Z,9.75
2023-04-17T08:52:47.699Z,10.85
2023-04-17T08:55:17.412Z,10.77
2023-04-17T08:57:55.922Z,10.85
2023-04-17T09:00:29.974Z,10.30
2023-04-17T09:03:00.455Z,10.43
2023-04-17T09:05:33.166Z,8.95
2023-04-17T09:08:12.284Z,10.05
2023-04-17T09:10:42.658Z,9.40
2023-04-17T09:13:14.266Z,9.10
2023-04-17T09:15:44.675Z,8.73
2023-04-17T09:18:24.767Z,9.00
2023-04-17T09:20:53.657Z,8.80
2023-04-17T09:23:22.725Z,8.93
2023-04-17T09:26:07.426Z,9.10
2023-04-17T09:28:39.083Z,8.60
2023-04-17T09:31:26.149Z,8.98
2023-04-17T09:34:00.511Z,8.40
2023-04-17T09:36:30.937Z,9.15
2023-04-17T09:39:01.268Z,8.77
2023-04-17T09:41:31.109Z,9.68
2023-04-17T09:44:01.860Z,9.38
2023-04-17T09:46:38.833Z,9.13
2023-04-17T09:49:11.972Z,9.10
2023-04-17T09:51:40.850Z,9.27
2023-04-17T09:54:11.345Z,10.20
2023-04-17T09:56:41.307Z,9.35
2023-04-17T09:59:10.367Z,9.75
2023-04-17T10:01:40.897Z,9.32
2023-04-17T10:04:09.460Z,9.73
2023-04-17T10:06:38.237Z,10.27
2023-04-17T10:09:08.019Z,8.05
2023-04-17T10:11:38.999Z,8.65
2023-04-17T10:14:12.931Z,8.20
2023-04-17T10:16:43.738Z,7.97
2023-04-17T10:19:30.340Z,7.15
2023-04-17T10:22:30.794Z,7.05
2023-04-17T10:25:18.391Z,5.55
2023-04-17T10:27:49.930Z,5.57
2023-04-17T10:33:26.201Z,5.38
2023-04-17T10:35:54.735Z,5.20
2023-04-17T10:38:36.747Z,4.88
2023-04-17T10:41:09.284Z,5.03
2023-04-17T10:43:45.133Z,4.47
2023-04-17T10:46:15.138Z,4.97
2023-04-17T10:48:52.116Z,4.93
2023-04-17T10:51:42.775Z,4.78
2023-04-17T10:54:15.669Z,3.92
2023-04-17T10:56:46.180Z,3.70
2023-04-17T10:59:16.226Z,4.68
2023-04-17T11:02:00.642Z,3.50
2023-04-17T11:04:32.006Z,3.90
2023-04-17T11:07:00.708Z,4.35
2023-04-17T11:09:30.254Z,3.42
2023-04-17T11:12:01.737Z,4.43
2023-04-17T11:14:31.020Z,3.78
2023-04-17T11:16:59.234Z,4.28
2023-04-17T11:19:27.821Z,3.50
2023-04-17T11:21:58.955Z,3.80
2023-04-17T11:24:28.224Z,3.70
2023-04-17T11:26:58.312Z,4.43
2023-04-17T11:29:27.611Z,4.78
2023-04-17T11:31:57.646Z,4.22
2023-04-17T11:34:27.336Z,4.40
2023-04-17T11:36:58.674Z,4.47
2023-04-17T11:39:29.024Z,4.57
2023-04-17T11:41:57.931Z,4.50
2023-04-17T11:44:26.848Z,4.35
2023-04-17T11:46:56.330Z,4.75
2023-04-17T11:49:28.838Z,4.60
2023-04-17T11:52:01.171Z,4.50
2023-04-17T11:54:30.633Z,4.70
2023-04-17T11:57:00.065Z,4.03
2023-04-17T11:59:32.791Z,5.30
2023-04-17T12:02:01.989Z,5.10
2023-04-17T12:04:33.659Z,4.53
2023-04-17T12:07:04.579Z,4.50
2023-04-17T12:09:33.602Z,4.50
2023-04-17T12:12:03.431Z,4.88
2023-04-17T12:14:31.677Z,4.65
2023-04-17T12:17:01.085Z,4.32
2023-04-17T12:19:29.827Z,4.65
2023-04-17T12:21:59.182Z,4.60
2023-04-17T12:24:28.848Z,4.00
2023-04-17T12:26:58.594Z,5.03
2023-04-17T12:29:40.623Z,4.68
2023-04-17T12:32:11.928Z,4.68
2023-04-17T12:34:40.467Z,4.60
2023-04-17T12:37:08.940Z,4.63
2023-04-17T12:39:38.644Z,4.30
2023-04-17T12:42:06.881Z,4.85
2023-04-17T12:44:35.067Z,4.55
2023-04-17T12:47:03.343Z,5.10
2023-04-17T12:49:31.775Z,4.80
2023-04-17T12:52:01.733Z,4.95
2023-04-17T12:54:31.501Z,5.28
2023-04-17T12:57:01.481Z,4.38
2023-04-17T12:59:30.023Z,4.82
2023-04-17T13:01:58.278Z,5.28
2023-04-17T13:04:26.862Z,5.32
2023-04-17T13:06:55.128Z,5.57
2023-04-17T13:09:23.272Z,5.65
2023-04-17T13:11:51.484Z,5.40
2023-04-17T13:14:21.335Z,5.53
2023-04-17T13:16:50.578Z,5.57
2023-04-17T13:19:19.030Z,5.50
2023-04-17T13:21:47.207Z,5.40
2023-04-17T13:24:15.770Z,5.43
2023-04-17T13:26:44.111Z,5.65
2023-04-17T13:29:12.523Z,5.28
2023-04-17T13:31:42.291Z,5.35
2023-04-17T13:34:12.612Z,5.32
2023-04-17T13:36:42.091Z,5.65
2023-04-17T13:39:10.392Z,5.60
2023-04-17T13:41:39.248Z,5.45
2023-04-17T13:44:07.485Z,5.63
2023-04-17T13:46:36.284Z,6.15
2023-04-17T13:49:05.787Z,5.35
2023-04-17T13:51:33.943Z,5.05
2023-04-17T13:54:02.149Z,5.60
2023-04-17T13:56:30.523Z,5.68
2023-04-17T13:58:58.949Z,5.40
2023-04-17T14:01:27.109Z,5.35
2023-04-17T14:03:55.351Z,5.15
2023-04-17T14:06:24.922Z,4.75
2023-04-17T14:08:53.047Z,5.65
2023-04-17T14:11:21.195Z,5.82
2023-04-17T14:13:49.349Z,5.75
2023-04-17T14:16:19.426Z,5.10
2023-04-17T14:18:49.028Z,5.93
2023-04-17T14:21:17.436Z,6.05
2023-04-17T14:23:47.031Z,5.50
2023-04-17T14:26:15.529Z,5.78
2023-04-17T14:28:43.748Z,4.40
2023-04-17T14:31:12.237Z,4.63
2023-04-17T14:33:40.433Z,4.80
2023-04-17T14:36:09.003Z,5.95
2023-04-17T14:38:37.191Z,4.70
2023-04-17T14:41:06.740Z,4.65
2023-04-17T14:43:34.893Z,4.65
2023-04-17T14:46:03.327Z,4.38
2023-04-17T14:48:34.396Z,5.22
2023-04-17T14:51:10.122Z,4.45
2023-04-17T14:53:38.279Z,4.93
2023-04-17T14:56:08.610Z,6.50
2023-04-17T14:58:36.799Z,5.30
2023-04-17T15:46:35.624Z,5.20
2023-04-17T15:49:08.218Z,4.93
2023-04-17T15:51:38.571Z,4.82
2023-04-17T15:54:08.408Z,5.22
2023-04-17T15:56:36.514Z,5.10
2023-04-17T15:59:45.190Z,4.60
2023-04-17T16:02:36.719Z,5.07
2023-04-17T16:05:25.409Z,5.15
2023-04-17T16:08:25.191Z,5.40
2023-04-17T16:11:27.487Z,5.18
2023-04-17T16:14:13.107Z,5.47
2023-04-17T16:16:44.708Z,5.55
2023-04-17T16:19:37.882Z,5.50
2023-04-17T16:22:14.780Z,5.10
2023-04-17T16:24:51.294Z,4.90
2023-04-17T16:27:20.194Z,5.00
2023-04-17T16:29:49.598Z,5.22
2023-04-17T16:32:21.321Z,5.13
2023-04-17T16:34:59.719Z,5.85
2023-04-17T16:37:39.927Z,5.28
2023-04-17T16:40:18.157Z,5.75
2023-04-17T16:42:46.964Z,6.00
2023-04-17T16:45:23.189Z,6.55
2023-04-17T16:48:10.455Z,5.60
2023-04-17T16:51:09.458Z,4.90
2023-04-17T16:53:51.836Z,5.20
2023-04-17T16:56:27.667Z,4.93
2023-04-17T16:59:03.637Z,4.57
2023-04-17T17:01:55.432Z,5.43
2023-04-17T17:04:24.510Z,5.28
2023-04-17T17:07:00.437Z,4.65
2023-04-17T17:09:36.621Z,4.20
2023-04-17T17:12:16.615Z,5.15
2023-04-17T17:14:50.255Z,5.07
2023-04-17T17:17:32.201Z,5.57
2023-04-17T17:20:18.362Z,5.50
2023-04-17T17:22:57.951Z,5.03
2023-04-17T17:25:37.845Z,5.60
2023-04-17T17:28:21.693Z,5.20
2023-04-17T17:31:08.956Z,5.15
2023-04-17T17:33:40.375Z,5.43
2023-04-17T17:36:12.413Z,6.38
2023-04-17T17:38:48.601Z,6.10
2023-04-17T17:41:21.234Z,5.68
2023-04-17T17:44:06.733Z,6.30
2023-04-17T17:46:46.406Z,6.10
2023-04-17T17:49:15.110Z,6.43
2023-04-17T17:51:44.391Z,6.75
2023-04-17T17:54:14.260Z,6.38
2023-04-17T17:56:42.614Z,6.53
2023-04-17T17:59:10.806Z,6.75
2023-04-17T18:01:40.149Z,6.45
2023-04-17T18:04:08.984Z,6.80
2023-04-17T18:06:37.459Z,6.20
2023-04-17T18:09:05.699Z,6.70
2023-04-17T18:11:35.294Z,6.22
2023-04-17T18:14:03.659Z,7.07
2023-04-17T18:16:32.827Z,7.00
2023-04-17T18:19:03.705Z,6.30
2023-04-17T18:21:32.006Z,7.30
2023-04-17T18:24:00.323Z,6.05
2023-04-17T18:26:29.592Z,6.70
2023-04-17T18:28:59.217Z,6.03
2023-04-17T18:31:28.285Z,6.30
2023-04-17T18:34:01.959Z,6.05
2023-04-17T18:36:30.766Z,6.25
2023-04-17T18:38:59.377Z,6.72
2023-04-17T18:41:27.807Z,6.97
2023-04-17T18:43:56.209Z,7.03
2023-04-17T18:46:27.027Z,8.32
2023-04-17T18:48:55.453Z,7.82
2023-04-17T18:51:23.660Z,6.57
2023-04-17T18:53:51.835Z,6.53
2023-04-17T18:56:20.056Z,7.20
2023-04-17T18:58:48.305Z,7.35
2023-04-17T19:01:16.790Z,7.55
2023-04-17T19:03:47.235Z,6.60
2023-04-17T19:06:15.536Z,6.32
2023-04-17T19:08:44.211Z,5.85
2023-04-17T19:11:12.486Z,6.35
2023-04-17T19:13:42.591Z,7.57
2023-04-17T19:16:11.379Z,7.35
2023-04-17T19:18:39.646Z,9.65
2023-04-17T19:21:09.433Z,9.63
2023-04-17T19:23:37.897Z,8.00
2023-04-17T19:26:06.177Z,7.50
2023-04-17T19:28:34.495Z,9.00
2023-04-17T19:31:03.307Z,8.68
2023-04-17T19:33:33.443Z,7.38
2023-04-17T19:36:03.002Z,6.85
2023-04-17T19:38:32.994Z,13.93
2023-04-17T19:41:20.732Z,15.77
2023-04-17T19:43:52.638Z,13.25
2023-04-17T19:46:22.410Z,10.70
2023-04-17T19:48:52.344Z,9.20
2023-04-17T19:51:20.635Z,7.93
2023-04-17T19:53:50.460Z,7.40
2023-04-17T19:56:18.777Z,6.50
2023-04-17T19:58:48.272Z,7.03
2023-04-17T20:01:16.580Z,7.63
2023-04-17T20:03:45.807Z,7.32
2023-04-17T20:06:14.626Z,7.15
2023-04-17T20:08:42.859Z,6.57
2023-04-17T20:11:12.860Z,7.60
2023-04-17T20:13:41.277Z,7.82
2023-04-17T20:16:09.738Z,7.97
2023-04-17T20:18:38.230Z,7.60
2023-04-17T20:21:07.028Z,8.18
2023-04-17T20:23:35.366Z,8.77
2023-04-17T20:26:03.779Z,8.18
2023-04-17T20:28:33.329Z,8.93
2023-04-17T20:31:01.641Z,8.93
2023-04-17T20:33:30.145Z,8.48
2023-04-17T20:35:59.045Z,7.53
2023-04-17T20:38:27.330Z,8.93
2023-04-17T20:40:55.736Z,7.90
2023-04-17T20:43:24.316Z,8.30
2023-04-17T20:45:53.918Z,10.68
2023-04-17T20:48:22.768Z,9.57
2023-04-17T20:50:51.199Z,9.13
2023-04-17T20:53:19.530Z,9.55
2023-04-17T20:55:47.844Z,9.82
2023-04-17T20:58:16.735Z,9.38
2023-04-17T21:00:58.321Z,8.48
2023-04-17T21:03:31.823Z,10.45
2023-04-17T21:06:00.353Z,9.63
2023-04-17T21:08:29.027Z,9.38
2023-04-17T21:10:57.548Z,10.45
2023-04-17T21:13:25.706Z,10.30
2023-04-17T21:15:53.950Z,9.48
2023-04-17T21:18:22.446Z,9.88
2023-04-17T21:20:52.135Z,8.75
2023-04-17T21:23:20.499Z,7.82
2023-04-17T21:25:53.686Z,8.93
2023-04-17T21:28:22.170Z,8.02
2023-04-17T21:30:50.436Z,9.25
2023-04-17T21:33:18.710Z,8.18
2023-04-17T21:35:46.900Z,9.40
2023-04-17T21:38:16.582Z,9.73
2023-04-17T21:43:16.095Z,9.77
2023-04-17T21:45:44.343Z,8.70
2023-04-17T21:48:12.509Z,8.40
2023-04-17T21:50:41.611Z,9.20
2023-04-17T21:53:10.058Z,10.52
2023-04-17T21:55:40.240Z,10.25
2023-04-17T21:58:09.011Z,8.82
2023-04-17T22:00:37.259Z,9.43
2023-04-17T22:03:05.545Z,9.15
2023-04-17T22:05:33.813Z,9.30
2023-04-17T22:08:02.313Z,8.43
2023-04-17T22:10:30.629Z,8.93
2023-04-17T22:13:00.128Z,9.70
2023-04-17T22:15:28.538Z,8.88
2023-04-17T22:17:56.735Z,9.48
2023-04-17T22:20:24.942Z,9.48
2023-04-17T22:22:54.850Z,9.32
2023-04-17T22:25:23.040Z,8.63
2023-04-17T22:27:51.211Z,9.48
2023-04-17T22:30:21.015Z,9.55
2023-04-17T22:32:49.145Z,8.43
2023-04-17T22:35:17.286Z,8.10
2023-04-17T22:37:45.756Z,8.60
2023-04-17T22:40:14.530Z,8.95
2023-04-17T22:42:43.867Z,8.07
2023-04-17T22:45:12.085Z,8.02
2023-04-17T22:47:41.817Z,9.20
2023-04-17T22:50:10.949Z,8.55
2023-04-17T22:52:39.120Z,8.55
2023-04-17T22:55:08.357Z,8.27
2023-04-17T22:57:36.588Z,8.00
2023-04-17T23:00:08.837Z,8.25
2023-04-17T23:02:37.342Z,8.80
2023-04-17T23:05:08.413Z,9.23
2023-04-17T23:07:36.570Z,8.80
2023-04-17T23:10:05.131Z,8.50
2023-04-17T23:12:33.310Z,7.75
2023-04-17T23:15:01.511Z,8.53
2023-04-17T23:17:29.891Z,7.95
2023-04-17T23:19:58.227Z,8.07
2023-04-17T23:22:27.950Z,8.20
2023-04-17T23:24:56.604Z,9.10
2023-04-17T23:27:24.913Z,8.33
2023-04-17T23:29:53.127Z,9.17
2023-04-17T23:32:21.541Z,8.93
2023-04-17T23:34:52.974Z,8.87
2023-04-17T23:37:21.267Z,8.30
2023-04-17T23:39:51.536Z,9.10
2023-04-17T23:42:19.761Z,9.23
2023-04-17T23:44:48.096Z,9.63
2023-04-17T23:47:16.418Z,9.57
2023-04-17T23:49:45.207Z,9.33
2023-04-17T23:52:13.592Z,9.90
2023-04-17T23:54:42.286Z,9.30
2023-04-17T23:57:12.078Z,8.17
2023-04-17T23:59:40.587Z,8.67
